sensor_id;sensor_type;location;lat;lon;timestamp;P1;durP1;ratioP1;P2;durP2;ratioP2
61085;SDS011;46967;48.876;2.136;2023-04-06T00:01:48;9.48;;;4.47;;
61085;SDS011;46967;48.876;2.136;2023-04-06T00:04:13;8.30;;;4.55;;
61085;SDS011;46967;48.876;2.136;2023-04-06T00:06:38;5.55;;;4.07;;
61085;SDS011;46967;48.876;2.136;2023-04-06T00:09:04;8.75;;;4.10;;
61085;SDS011;46967;48.876;2.136;2023-04-06T00:11:29;9.70;;;5.10;;
61085;SDS011;46967;48.876;2.136;2023-04-06T00:13:55;10.20;;;4.45;;
61085;SDS011;46967;48.876;2.136;2023-04-06T00:16:20;9.55;;;4.55;;
61085;SDS011;46967;48.876;2.136;2023-04-06T00:18:45;7.75;;;4.53;;
61085;SDS011;46967;48.876;2.136;2023-04-06T00:21:11;9.15;;;4.57;;
61085;SDS011;46967;48.876;2.136;2023-04-06T00:23:38;6.97;;;4.25;;
61085;SDS011;46967;48.876;2.136;2023-04-06T00:26:03;7.40;;;4.57;;
61085;SDS011;46967;48.876;2.136;2023-04-06T00:28:29;6.45;;;4.03;;
61085;SDS011;46967;48.876;2.136;2023-04-06T00:30:55;7.57;;;4.63;;
61085;SDS011;46967;48.876;2.136;2023-04-06T00:33:20;10.15;;;4.50;;
61085;SDS011;46967;48.876;2.136;2023-04-06T00:35:46;9.02;;;4.55;;
61085;SDS011;46967;48.876;2.136;2023-04-06T00:38:12;9.18;;;4.05;;
61085;SDS011;46967;48.876;2.136;2023-04-06T00:40:37;7.63;;;4.35;;
61085;SDS011;46967;48.876;2.136;2023-04-06T00:43:05;7.05;;;4.30;;
61085;SDS011;46967;48.876;2.136;2023-04-06T00:45:30;9.05;;;4.03;;
61085;SDS011;46967;48.876;2.136;2023-04-06T00:47:56;8.70;;;4.90;;
61085;SDS011;46967;48.876;2.136;2023-04-06T00:50:21;8.30;;;4.03;;
61085;SDS011;46967;48.876;2.136;2023-04-06T00:52:47;6.30;;;4.05;;
61085;SDS011;46967;48.876;2.136;2023-04-06T00:55:12;8.25;;;4.07;;
61085;SDS011;46967;48.876;2.136;2023-04-06T00:57:38;6.43;;;4.00;;
61085;SDS011;46967;48.876;2.136;2023-04-06T01:00:03;5.97;;;4.35;;
61085;SDS011;46967;48.876;2.136;2023-04-06T01:02:29;8.77;;;4.65;;
61085;SDS011;46967;48.876;2.136;2023-04-06T01:04:55;8.52;;;4.40;;
61085;SDS011;46967;48.876;2.136;2023-04-06T01:07:21;9.48;;;4.63;;
61085;SDS011;46967;48.876;2.136;2023-04-06T01:09:46;7.80;;;4.30;;
61085;SDS011;46967;48.876;2.136;2023-04-06T01:12:11;7.68;;;4.15;;
61085;SDS011;46967;48.876;2.136;2023-04-06T01:14:37;9.30;;;4.30;;
61085;SDS011;46967;48.876;2.136;2023-04-06T01:17:02;10.40;;;4.18;;
61085;SDS011;46967;48.876;2.136;2023-04-06T01:19:27;6.93;;;4.50;;
61085;SDS011;46967;48.876;2.136;2023-04-06T01:21:53;7.30;;;4.10;;
61085;SDS011;46967;48.876;2.136;2023-04-06T01:24:20;8.52;;;4.25;;
61085;SDS011;46967;48.876;2.136;2023-04-06T01:26:46;6.50;;;4.07;;
61085;SDS011;46967;48.876;2.136;2023-04-06T01:29:11;7.90;;;4.60;;
61085;SDS011;46967;48.876;2.136;2023-04-06T01:31:37;5.53;;;4.03;;
61085;SDS011;46967;48.876;2.136;2023-04-06T01:34:03;10.55;;;4.97;;
61085;SDS011;46967;48.876;2.136;2023-04-06T01:36:28;10.65;;;4.80;;
61085;SDS011;46967;48.876;2.136;2023-04-06T01:38:53;8.82;;;4.15;;
61085;SDS011;46967;48.876;2.136;2023-04-06T01:41:19;9.38;;;4.55;;
61085;SDS011;46967;48.876;2.136;2023-04-06T01:43:45;6.82;;;3.88;;
61085;SDS011;46967;48.876;2.136;2023-04-06T01:46:12;7.38;;;3.92;;
61085;SDS011;46967;48.876;2.136;2023-04-06T01:48:37;9.15;;;4.40;;
61085;SDS011;46967;48.876;2.136;2023-04-06T01:51:02;8.00;;;4.45;;
61085;SDS011;46967;48.876;2.136;2023-04-06T01:53:28;5.53;;;3.70;;
61085;SDS011;46967;48.876;2.136;2023-04-06T01:55:53;8.90;;;4.18;;
61085;SDS011;46967;48.876;2.136;2023-04-06T01:58:18;6.78;;;4.40;;
61085;SDS011;46967;48.876;2.136;2023-04-06T02:00:44;9.75;;;4.40;;
61085;SDS011;46967;48.876;2.136;2023-04-06T02:03:09;7.95;;;4.20;;
61085;SDS011;46967;48.876;2.136;2023-04-06T02:05:35;8.98;;;4.53;;
61085;SDS011;46967;48.876;2.136;2023-04-06T02:08:06;7.18;;;3.92;;
61085;SDS011;46967;48.876;2.136;2023-04-06T02:10:32;7.35;;;4.50;;
61085;SDS011;46967;48.876;2.136;2023-04-06T02:12:59;9.88;;;4.72;;
61085;SDS011;46967;48.876;2.136;2023-04-06T02:15:25;7.63;;;4.20;;
61085;SDS011;46967;48.876;2.136;2023-04-06T02:17:51;8.05;;;4.78;;
61085;SDS011;46967;48.876;2.136;2023-04-06T02:20:16;6.88;;;4.20;;
61085;SDS011;46967;48.876;2.136;2023-04-06T02:22:42;11.10;;;4.43;;
61085;SDS011;46967;48.876;2.136;2023-04-06T02:25:07;9.38;;;4.25;;
61085;SDS011;46967;48.876;2.136;2023-04-06T02:27:33;6.30;;;4.25;;
61085;SDS011;46967;48.876;2.136;2023-04-06T02:29:59;7.90;;;4.60;;
61085;SDS011;46967;48.876;2.136;2023-04-06T02:32:24;7.53;;;4.57;;
61085;SDS011;46967;48.876;2.136;2023-04-06T02:34:49;8.13;;;5.20;;
61085;SDS011;46967;48.876;2.136;2023-04-06T02:37:15;8.60;;;4.40;;
61085;SDS011;46967;48.876;2.136;2023-04-06T02:39:40;8.10;;;4.93;;
61085;SDS011;46967;48.876;2.136;2023-04-06T02:42:06;8.15;;;4.55;;
61085;SDS011;46967;48.876;2.136;2023-04-06T02:44:31;7.82;;;4.25;;
61085;SDS011;46967;48.876;2.136;2023-04-06T02:46:57;6.65;;;4.65;;
61085;SDS011;46967;48.876;2.136;2023-04-06T02:49:22;8.82;;;4.57;;
61085;SDS011;46967;48.876;2.136;2023-04-06T02:51:47;6.68;;;4.43;;
61085;SDS011;46967;48.876;2.136;2023-04-06T02:54:13;8.23;;;4.88;;
61085;SDS011;46967;48.876;2.136;2023-04-06T02:56:38;7.80;;;4.88;;
61085;SDS011;46967;48.876;2.136;2023-04-06T02:59:03;7.55;;;4.82;;
61085;SDS011;46967;48.876;2.136;2023-04-06T03:01:29;6.35;;;4.75;;
61085;SDS011;46967;48.876;2.136;2023-04-06T03:03:54;16.08;;;4.80;;
61085;SDS011;46967;48.876;2.136;2023-04-06T03:06:20;8.57;;;4.47;;
61085;SDS011;46967;48.876;2.136;2023-04-06T03:08:45;9.30;;;5.07;;
61085;SDS011;46967;48.876;2.136;2023-04-06T03:11:10;6.88;;;4.97;;
61085;SDS011;46967;48.876;2.136;2023-04-06T03:13:36;9.05;;;5.05;;
61085;SDS011;46967;48.876;2.136;2023-04-06T03:16:03;7.32;;;4.50;;
61085;SDS011;46967;48.876;2.136;2023-04-06T03:18:32;7.80;;;4.78;;
61085;SDS011;46967;48.876;2.136;2023-04-06T03:20:58;10.00;;;4.85;;
61085;SDS011;46967;48.876;2.136;2023-04-06T03:23:25;7.20;;;4.38;;
61085;SDS011;46967;48.876;2.136;2023-04-06T03:25:50;8.23;;;5.00;;
61085;SDS011;46967;48.876;2.136;2023-04-06T03:28:15;11.00;;;4.80;;
61085;SDS011;46967;48.876;2.136;2023-04-06T03:30:41;7.82;;;4.65;;
61085;SDS011;46967;48.876;2.136;2023-04-06T03:33:06;8.50;;;4.30;;
61085;SDS011;46967;48.876;2.136;2023-04-06T03:35:32;7.28;;;4.40;;
61085;SDS011;46967;48.876;2.136;2023-04-06T03:37:57;7.88;;;4.78;;
61085;SDS011;46967;48.876;2.136;2023-04-06T03:40:22;10.30;;;4.55;;
61085;SDS011;46967;48.876;2.136;2023-04-06T03:42:48;7.45;;;4.43;;
61085;SDS011;46967;48.876;2.136;2023-04-06T03:45:13;8.57;;;4.70;;
61085;SDS011;46967;48.876;2.136;2023-04-06T03:47:39;8.82;;;5.00;;
61085;SDS011;46967;48.876;2.136;2023-04-06T03:50:05;7.60;;;4.60;;
61085;SDS011;46967;48.876;2.136;2023-04-06T03:52:31;9.52;;;5.13;;
61085;SDS011;46967;48.876;2.136;2023-04-06T03:54:56;9.32;;;5.18;;
61085;SDS011;46967;48.876;2.136;2023-04-06T03:57:21;8.55;;;5.22;;
61085;SDS011;46967;48.876;2.136;2023-04-06T03:59:47;7.97;;;4.85;;
61085;SDS011;46967;48.876;2.136;2023-04-06T04:02:12;8.77;;;5.10;;
61085;SDS011;46967;48.876;2.136;2023-04-06T04:04:37;7.85;;;4.88;;
61085;SDS011;46967;48.876;2.136;2023-04-06T04:07:03;9.25;;;5.30;;
61085;SDS011;46967;48.876;2.136;2023-04-06T04:09:28;10.77;;;5.20;;
61085;SDS011;46967;48.876;2.136;2023-04-06T04:11:54;7.85;;;5.35;;
61085;SDS011;46967;48.876;2.136;2023-04-06T04:14:19;9.40;;;4.72;;
61085;SDS011;46967;48.876;2.136;2023-04-06T04:16:45;8.77;;;4.95;;
61085;SDS011;46967;48.876;2.136;2023-04-06T04:19:10;7.75;;;5.07;;
61085;SDS011;46967;48.876;2.136;2023-04-06T04:21:41;7.45;;;4.28;;
61085;SDS011;46967;48.876;2.136;2023-04-06T04:24:09;10.77;;;4.70;;
61085;SDS011;46967;48.876;2.136;2023-04-06T04:26:34;6.88;;;4.32;;
61085;SDS011;46967;48.876;2.136;2023-04-06T04:29:00;7.95;;;4.65;;
61085;SDS011;46967;48.876;2.136;2023-04-06T04:31:25;8.75;;;4.60;;
61085;SDS011;46967;48.876;2.136;2023-04-06T04:33:51;8.48;;;5.05;;
61085;SDS011;46967;48.876;2.136;2023-04-06T04:36:16;8.35;;;4.60;;
61085;SDS011;46967;48.876;2.136;2023-04-06T04:38:41;9.18;;;4.82;;
61085;SDS011;46967;48.876;2.136;2023-04-06T04:41:07;10.75;;;5.53;;
61085;SDS011;46967;48.876;2.136;2023-04-06T04:43:32;9.15;;;4.93;;
61085;SDS011;46967;48.876;2.136;2023-04-06T04:45:57;10.68;;;6.05;;
61085;SDS011;46967;48.876;2.136;2023-04-06T04:48:24;9.02;;;5.18;;
61085;SDS011;46967;48.876;2.136;2023-04-06T04:50:49;10.60;;;5.40;;
61085;SDS011;46967;48.876;2.136;2023-04-06T04:53:14;10.57;;;5.22;;
61085;SDS011;46967;48.876;2.136;2023-04-06T04:55:40;7.93;;;5.18;;
61085;SDS011;46967;48.876;2.136;2023-04-06T04:58:05;8.02;;;5.05;;
61085;SDS011;46967;48.876;2.136;2023-04-06T05:00:31;9.30;;;5.35;;
61085;SDS011;46967;48.876;2.136;2023-04-06T05:02:56;9.70;;;5.50;;
61085;SDS011;46967;48.876;2.136;2023-04-06T05:05:21;10.13;;;4.95;;
61085;SDS011;46967;48.876;2.136;2023-04-06T05:07:47;8.20;;;5.00;;
61085;SDS011;46967;48.876;2.136;2023-04-06T05:10:12;9.35;;;5.25;;
61085;SDS011;46967;48.876;2.136;2023-04-06T05:12:37;10.23;;;5.65;;
61085;SDS011;46967;48.876;2.136;2023-04-06T05:15:03;9.30;;;5.65;;
61085;SDS011;46967;48.876;2.136;2023-04-06T05:17:29;12.05;;;6.50;;
61085;SDS011;46967;48.876;2.136;2023-04-06T05:19:54;11.82;;;5.93;;
61085;SDS011;46967;48.876;2.136;2023-04-06T05:22:20;11.05;;;6.55;;
61085;SDS011;46967;48.876;2.136;2023-04-06T05:24:46;10.45;;;6.63;;
61085;SDS011;46967;48.876;2.136;2023-04-06T05:27:11;13.20;;;7.15;;
61085;SDS011;46967;48.876;2.136;2023-04-06T05:29:36;13.48;;;6.07;;
61085;SDS011;46967;48.876;2.136;2023-04-06T05:32:02;10.10;;;6.28;;
61085;SDS011;46967;48.876;2.136;2023-04-06T05:34:27;14.70;;;7.03;;
61085;SDS011;46967;48.876;2.136;2023-04-06T05:36:53;13.65;;;6.50;;
61085;SDS011;46967;48.876;2.136;2023-04-06T05:39:18;9.77;;;5.97;;
61085;SDS011;46967;48.876;2.136;2023-04-06T05:41:43;9.38;;;5.80;;
61085;SDS011;46967;48.876;2.136;2023-04-06T05:44:09;10.73;;;6.75;;
61085;SDS011;46967;48.876;2.136;2023-04-06T05:46:35;11.88;;;6.55;;
61085;SDS011;46967;48.876;2.136;2023-04-06T05:49:00;13.23;;;6.53;;
61085;SDS011;46967;48.876;2.136;2023-04-06T05:51:25;12.75;;;6.93;;
61085;SDS011;46967;48.876;2.136;2023-04-06T05:53:52;12.95;;;6.78;;
61085;SDS011;46967;48.876;2.136;2023-04-06T05:56:17;13.23;;;6.85;;
61085;SDS011;46967;48.876;2.136;2023-04-06T05:58:42;11.68;;;6.55;;
61085;SDS011;46967;48.876;2.136;2023-04-06T06:01:08;14.20;;;6.80;;
61085;SDS011;46967;48.876;2.136;2023-04-06T06:03:34;10.75;;;6.50;;
61085;SDS011;46967;48.876;2.136;2023-04-06T06:06:03;16.58;;;6.53;;
61085;SDS011;46967;48.876;2.136;2023-04-06T06:08:29;11.95;;;6.57;;
61085;SDS011;46967;48.876;2.136;2023-04-06T06:10:55;11.38;;;6.85;;
61085;SDS011;46967;48.876;2.136;2023-04-06T06:13:21;14.20;;;7.10;;
61085;SDS011;46967;48.876;2.136;2023-04-06T06:15:48;13.35;;;6.90;;
61085;SDS011;46967;48.876;2.136;2023-04-06T06:18:14;10.43;;;6.57;;
61085;SDS011;46967;48.876;2.136;2023-04-06T06:20:39;17.17;;;7.35;;
61085;SDS011;46967;48.876;2.136;2023-04-06T06:23:04;11.38;;;6.80;;
61085;SDS011;46967;48.876;2.136;2023-04-06T06:25:30;9.88;;;6.93;;
61085;SDS011;46967;48.876;2.136;2023-04-06T06:27:56;10.75;;;6.85;;
61085;SDS011;46967;48.876;2.136;2023-04-06T06:30:21;14.10;;;7.00;;
61085;SDS011;46967;48.876;2.136;2023-04-06T06:32:47;12.60;;;6.72;;
61085;SDS011;46967;48.876;2.136;2023-04-06T06:35:12;10.15;;;6.65;;
61085;SDS011;46967;48.876;2.136;2023-04-06T06:37:37;11.25;;;7.20;;
61085;SDS011;46967;48.876;2.136;2023-04-06T06:40:03;11.73;;;7.00;;
61085;SDS011;46967;48.876;2.136;2023-04-06T06:42:29;14.13;;;6.93;;
61085;SDS011;46967;48.876;2.136;2023-04-06T06:44:54;11.77;;;6.88;;
61085;SDS011;46967;48.876;2.136;2023-04-06T06:47:20;13.40;;;6.68;;
61085;SDS011;46967;48.876;2.136;2023-04-06T06:49:45;11.65;;;7.60;;
61085;SDS011;46967;48.876;2.136;2023-04-06T06:52:10;10.98;;;7.05;;
61085;SDS011;46967;48.876;2.136;2023-04-06T06:54:36;12.13;;;7.53;;
61085;SDS011;46967;48.876;2.136;2023-04-06T06:57:01;13.10;;;6.90;;
61085;SDS011;46967;48.876;2.136;2023-04-06T06:59:27;11.43;;;6.70;;
61085;SDS011;46967;48.876;2.136;2023-04-06T07:01:52;10.38;;;6.78;;
61085;SDS011;46967;48.876;2.136;2023-04-06T07:04:18;11.27;;;6.95;;
61085;SDS011;46967;48.876;2.136;2023-04-06T07:06:43;13.73;;;7.47;;
61085;SDS011;46967;48.876;2.136;2023-04-06T07:09:08;14.18;;;7.15;;
61085;SDS011;46967;48.876;2.136;2023-04-06T07:11:34;13.80;;;7.63;;
61085;SDS011;46967;48.876;2.136;2023-04-06T07:13:59;12.85;;;8.02;;
61085;SDS011;46967;48.876;2.136;2023-04-06T07:16:24;14.05;;;7.00;;
61085;SDS011;46967;48.876;2.136;2023-04-06T07:18:50;12.73;;;7.57;;
61085;SDS011;46967;48.876;2.136;2023-04-06T07:21:15;13.43;;;7.57;;
61085;SDS011;46967;48.876;2.136;2023-04-06T07:23:41;10.98;;;7.15;;
61085;SDS011;46967;48.876;2.136;2023-04-06T07:26:06;13.48;;;8.43;;
61085;SDS011;46967;48.876;2.136;2023-04-06T07:28:32;16.75;;;8.27;;
61085;SDS011;46967;48.876;2.136;2023-04-06T07:30:57;15.20;;;8.52;;
61085;SDS011;46967;48.876;2.136;2023-04-06T07:33:22;16.33;;;8.25;;
61085;SDS011;46967;48.876;2.136;2023-04-06T07:35:48;15.43;;;8.60;;
61085;SDS011;46967;48.876;2.136;2023-04-06T07:38:13;11.43;;;8.02;;
61085;SDS011;46967;48.876;2.136;2023-04-06T07:40:38;15.80;;;8.95;;
61085;SDS011;46967;48.876;2.136;2023-04-06T07:43:04;14.20;;;8.20;;
61085;SDS011;46967;48.876;2.136;2023-04-06T07:45:29;15.60;;;8.63;;
61085;SDS011;46967;48.876;2.136;2023-04-06T07:47:55;12.18;;;8.48;;
61085;SDS011;46967;48.876;2.136;2023-04-06T07:50:20;15.02;;;8.98;;
61085;SDS011;46967;48.876;2.136;2023-04-06T07:52:46;17.60;;;9.55;;
61085;SDS011;46967;48.876;2.136;2023-04-06T07:55:11;13.68;;;8.82;;
61085;SDS011;46967;48.876;2.136;2023-04-06T07:57:36;13.27;;;9.18;;
61085;SDS011;46967;48.876;2.136;2023-04-06T08:00:02;20.35;;;9.52;;
61085;SDS011;46967;48.876;2.136;2023-04-06T08:02:29;14.60;;;9.23;;
61085;SDS011;46967;48.876;2.136;2023-04-06T08:04:54;16.10;;;9.52;;
61085;SDS011;46967;48.876;2.136;2023-04-06T08:07:20;16.02;;;9.13;;
61085;SDS011;46967;48.876;2.136;2023-04-06T08:09:45;15.23;;;9.13;;
61085;SDS011;46967;48.876;2.136;2023-04-06T08:12:11;13.95;;;9.05;;
61085;SDS011;46967;48.876;2.136;2023-04-06T08:14:36;18.95;;;9.32;;
61085;SDS011;46967;48.876;2.136;2023-04-06T08:17:01;15.60;;;9.48;;
61085;SDS011;46967;48.876;2.136;2023-04-06T08:19:27;16.83;;;9.25;;
61085;SDS011;46967;48.876;2.136;2023-04-06T08:21:52;16.80;;;9.75;;
61085;SDS011;46967;48.876;2.136;2023-04-06T08:24:17;16.35;;;9.27;;
61085;SDS011;46967;48.876;2.136;2023-04-06T08:26:43;14.15;;;8.82;;
61085;SDS011;46967;48.876;2.136;2023-04-06T08:29:08;13.75;;;9.18;;
61085;SDS011;46967;48.876;2.136;2023-04-06T08:31:34;18.15;;;9.40;;
61085;SDS011;46967;48.876;2.136;2023-04-06T08:34:00;14.65;;;9.18;;
61085;SDS011;46967;48.876;2.136;2023-04-06T08:36:25;14.85;;;9.82;;
61085;SDS011;46967;48.876;2.136;2023-04-06T08:38:51;18.55;;;9.80;;
61085;SDS011;46967;48.876;2.136;2023-04-06T08:41:18;15.45;;;9.38;;
61085;SDS011;46967;48.876;2.136;2023-04-06T08:46:12;14.68;;;9.18;;
61085;SDS011;46967;48.876;2.136;2023-04-06T08:48:41;14.73;;;9.45;;
61085;SDS011;46967;48.876;2.136;2023-04-06T08:51:07;15.32;;;10.23;;
61085;SDS011;46967;48.876;2.136;2023-04-06T08:53:34;15.32;;;9.85;;
61085;SDS011;46967;48.876;2.136;2023-04-06T08:56:00;15.68;;;9.55;;
61085;SDS011;46967;48.876;2.136;2023-04-06T08:58:26;12.45;;;8.73;;
61085;SDS011;46967;48.876;2.136;2023-04-06T09:00:53;14.30;;;9.00;;
61085;SDS011;46967;48.876;2.136;2023-04-06T09:03:19;15.45;;;8.80;;
61085;SDS011;46967;48.876;2.136;2023-04-06T09:05:45;11.07;;;8.02;;
61085;SDS011;46967;48.876;2.136;2023-04-06T09:08:12;13.20;;;8.50;;
61085;SDS011;46967;48.876;2.136;2023-04-06T09:10:41;16.80;;;8.50;;
61085;SDS011;46967;48.876;2.136;2023-04-06T09:13:07;12.03;;;7.97;;
61085;SDS011;46967;48.876;2.136;2023-04-06T09:15:33;12.55;;;8.25;;
61085;SDS011;46967;48.876;2.136;2023-04-06T09:17:59;11.75;;;8.02;;
61085;SDS011;46967;48.876;2.136;2023-04-06T09:20:25;10.65;;;7.45;;
61085;SDS011;46967;48.876;2.136;2023-04-06T09:22:51;11.93;;;7.78;;
61085;SDS011;46967;48.876;2.136;2023-04-06T09:25:23;11.38;;;7.20;;
61085;SDS011;46967;48.876;2.136;2023-04-06T09:27:58;8.80;;;7.03;;
61085;SDS011;46967;48.876;2.136;2023-04-06T09:30:25;9.63;;;6.95;;
61085;SDS011;46967;48.876;2.136;2023-04-06T09:32:52;7.97;;;6.30;;
61085;SDS011;46967;48.876;2.136;2023-04-06T09:35:19;8.13;;;5.65;;
61085;SDS011;46967;48.876;2.136;2023-04-06T09:37:49;10.73;;;5.47;;
61085;SDS011;46967;48.876;2.136;2023-04-06T09:40:16;12.18;;;5.60;;
61085;SDS011;46967;48.876;2.136;2023-04-06T09:42:47;7.25;;;5.43;;
61085;SDS011;46967;48.876;2.136;2023-04-06T09:45:13;8.20;;;5.85;;
61085;SDS011;46967;48.876;2.136;2023-04-06T09:47:40;6.10;;;4.65;;
61085;SDS011;46967;48.876;2.136;2023-04-06T09:50:08;7.50;;;5.03;;
61085;SDS011;46967;48.876;2.136;2023-04-06T09:55:07;8.02;;;5.20;;
61085;SDS011;46967;48.876;2.136;2023-04-06T10:01:06;7.50;;;5.47;;
61085;SDS011;46967;48.876;2.136;2023-04-06T10:06:21;9.40;;;4.68;;
61085;SDS011;46967;48.876;2.136;2023-04-06T10:08:48;8.25;;;4.90;;
61085;SDS011;46967;48.876;2.136;2023-04-06T10:11:16;6.18;;;4.68;;
61085;SDS011;46967;48.876;2.136;2023-04-06T10:13:42;7.78;;;4.90;;
61085;SDS011;46967;48.876;2.136;2023-04-06T10:16:10;8.40;;;5.07;;
61085;SDS011;46967;48.876;2.136;2023-04-06T10:18:39;7.60;;;4.95;;
61085;SDS011;46967;48.876;2.136;2023-04-06T10:21:14;6.05;;;4.15;;
61085;SDS011;46967;48.876;2.136;2023-04-06T10:23:51;6.78;;;4.65;;
61085;SDS011;46967;48.876;2.136;2023-04-06T10:26:21;6.97;;;4.75;;
61085;SDS011;46967;48.876;2.136;2023-04-06T10:28:47;5.97;;;4.30;;
61085;SDS011;46967;48.876;2.136;2023-04-06T10:31:14;5.97;;;4.40;;
61085;SDS011;46967;48.876;2.136;2023-04-06T10:33:40;6.20;;;4.43;;
61085;SDS011;46967;48.876;2.136;2023-04-06T10:36:10;8.15;;;4.88;;
61085;SDS011;46967;48.876;2.136;2023-04-06T10:38:37;7.15;;;4.55;;
61085;SDS011;46967;48.876;2.136;2023-04-06T10:41:03;7.45;;;4.30;;
61085;SDS011;46967;48.876;2.136;2023-04-06T10:43:32;5.45;;;4.00;;
61085;SDS011;46967;48.876;2.136;2023-04-06T10:46:00;7.57;;;4.30;;
61085;SDS011;46967;48.876;2.136;2023-04-06T10:48:36;6.63;;;4.35;;
61085;SDS011;46967;48.876;2.136;2023-04-06T10:51:06;6.43;;;4.20;;
61085;SDS011;46967;48.876;2.136;2023-04-06T10:53:33;5.43;;;3.83;;
61085;SDS011;46967;48.876;2.136;2023-04-06T10:55:59;6.82;;;4.30;;
61085;SDS011;46967;48.876;2.136;2023-04-06T10:58:25;8.00;;;4.20;;
61085;SDS011;46967;48.876;2.136;2023-04-06T11:00:52;7.38;;;4.13;;
61085;SDS011;46967;48.876;2.136;2023-04-06T11:03:19;5.97;;;3.63;;
61085;SDS011;46967;48.876;2.136;2023-04-06T11:05:45;7.30;;;4.50;;
61085;SDS011;46967;48.876;2.136;2023-04-06T11:08:32;7.35;;;4.13;;
61085;SDS011;46967;48.876;2.136;2023-04-06T11:11:07;4.53;;;3.30;;
61085;SDS011;46967;48.876;2.136;2023-04-06T11:13:41;7.00;;;3.53;;
61085;SDS011;46967;48.876;2.136;2023-04-06T11:16:14;7.10;;;3.50;;
61085;SDS011;46967;48.876;2.136;2023-04-06T11:21:33;5.22;;;3.05;;
61085;SDS011;46967;48.876;2.136;2023-04-06T11:24:14;4.15;;;3.20;;
61085;SDS011;46967;48.876;2.136;2023-04-06T11:26:44;4.45;;;2.65;;
61085;SDS011;46967;48.876;2.136;2023-04-06T11:29:22;5.28;;;2.83;;
61085;SDS011;46967;48.876;2.136;2023-04-06T11:31:54;4.88;;;3.08;;
61085;SDS011;46967;48.876;2.136;2023-04-06T11:34:24;6.03;;;2.90;;
61085;SDS011;46967;48.876;2.136;2023-04-06T11:37:00;4.57;;;2.63;;
61085;SDS011;46967;48.876;2.136;2023-04-06T11:39:28;5.45;;;2.70;;
61085;SDS011;46967;48.876;2.136;2023-04-06T11:41:58;5.93;;;2.40;;
61085;SDS011;46967;48.876;2.136;2023-04-06T11:47:04;5.10;;;2.30;;
61085;SDS011;46967;48.876;2.136;2023-04-06T11:49:31;6.68;;;2.85;;
61085;SDS011;46967;48.876;2.136;2023-04-06T11:51:58;5.03;;;2.45;;
61085;SDS011;46967;48.876;2.136;2023-04-06T11:57:01;2.72;;;2.20;;
61085;SDS011;46967;48.876;2.136;2023-04-06T11:59:27;5.93;;;2.08;;
61085;SDS011;46967;48.876;2.136;2023-04-06T12:01:52;5.03;;;2.42;;
61085;SDS011;46967;48.876;2.136;2023-04-06T12:04:19;6.95;;;2.75;;
61085;SDS011;46967;48.876;2.136;2023-04-06T12:06:44;5.35;;;2.80;;
61085;SDS011;46967;48.876;2.136;2023-04-06T12:09:10;5.40;;;2.58;;
61085;SDS011;46967;48.876;2.136;2023-04-06T12:11:35;8.23;;;2.20;;
61085;SDS011;46967;48.876;2.136;2023-04-06T12:14:00;4.15;;;1.75;;
61085;SDS011;46967;48.876;2.136;2023-04-06T12:16:29;5.07;;;2.05;;
61085;SDS011;46967;48.876;2.136;2023-04-06T12:18:55;2.42;;;1.63;;
61085;SDS011;46967;48.876;2.136;2023-04-06T12:21:21;7.63;;;1.98;;
61085;SDS011;46967;48.876;2.136;2023-04-06T12:23:46;3.22;;;1.40;;
61085;SDS011;46967;48.876;2.136;2023-04-06T12:26:11;5.68;;;1.48;;
61085;SDS011;46967;48.876;2.136;2023-04-06T12:28:37;3.83;;;1.42;;
61085;SDS011;46967;48.876;2.136;2023-04-06T12:31:02;2.33;;;1.27;;
61085;SDS011;46967;48.876;2.136;2023-04-06T12:33:27;6.65;;;1.13;;
61085;SDS011;46967;48.876;2.136;2023-04-06T12:35:53;5.22;;;1.30;;
61085;SDS011;46967;48.876;2.136;2023-04-06T12:38:19;6.65;;;1.70;;
61085;SDS011;46967;48.876;2.136;2023-04-06T12:40:45;3.80;;;1.05;;
61085;SDS011;46967;48.876;2.136;2023-04-06T12:43:10;3.80;;;0.95;;
61085;SDS011;46967;48.876;2.136;2023-04-06T12:45:37;2.88;;;1.00;;
61085;SDS011;46967;48.876;2.136;2023-04-06T12:48:03;2.17;;;1.05;;
61085;SDS011;46967;48.876;2.136;2023-04-06T12:50:29;4.72;;;1.17;;
61085;SDS011;46967;48.876;2.136;2023-04-06T12:52:54;2.58;;;0.98;;
61085;SDS011;46967;48.876;2.136;2023-04-06T12:55:19;2.47;;;1.10;;
61085;SDS011;46967;48.876;2.136;2023-04-06T12:57:46;4.30;;;1.10;;
61085;SDS011;46967;48.876;2.136;2023-04-06T13:00:12;5.15;;;1.10;;
61085;SDS011;46967;48.876;2.136;2023-04-06T13:02:39;6.30;;;1.10;;
61085;SDS011;46967;48.876;2.136;2023-04-06T13:05:04;5.50;;;1.30;;
61085;SDS011;46967;48.876;2.136;2023-04-06T13:07:30;3.75;;;1.08;;
61085;SDS011;46967;48.876;2.136;2023-04-06T13:09:55;3.20;;;1.10;;
61085;SDS011;46967;48.876;2.136;2023-04-06T13:12:21;3.88;;;1.35;;
61085;SDS011;46967;48.876;2.136;2023-04-06T13:14:46;3.22;;;1.20;;
61085;SDS011;46967;48.876;2.136;2023-04-06T13:17:15;4.95;;;1.23;;
61085;SDS011;46967;48.876;2.136;2023-04-06T13:19:41;3.58;;;1.20;;
61085;SDS011;46967;48.876;2.136;2023-04-06T13:22:07;3.38;;;1.02;;
61085;SDS011;46967;48.876;2.136;2023-04-06T13:24:32;3.78;;;1.10;;
61085;SDS011;46967;48.876;2.136;2023-04-06T13:26:58;6.70;;;1.85;;
61085;SDS011;46967;48.876;2.136;2023-04-06T13:29:23;5.95;;;0.90;;
61085;SDS011;46967;48.876;2.136;2023-04-06T13:31:49;9.30;;;1.35;;
61085;SDS011;46967;48.876;2.136;2023-04-06T13:34:14;4.53;;;1.10;;
61085;SDS011;46967;48.876;2.136;2023-04-06T13:36:40;3.75;;;1.10;;
61085;SDS011;46967;48.876;2.136;2023-04-06T13:39:06;4.00;;;0.80;;
61085;SDS011;46967;48.876;2.136;2023-04-06T13:41:32;7.80;;;1.00;;
61085;SDS011;46967;48.876;2.136;2023-04-06T13:43:57;5.57;;;0.80;;
61085;SDS011;46967;48.876;2.136;2023-04-06T13:46:23;6.45;;;1.02;;
61085;SDS011;46967;48.876;2.136;2023-04-06T13:48:49;5.72;;;1.42;;
61085;SDS011;46967;48.876;2.136;2023-04-06T13:51:14;6.50;;;1.25;;
61085;SDS011;46967;48.876;2.136;2023-04-06T13:53:40;3.40;;;0.75;;
61085;SDS011;46967;48.876;2.136;2023-04-06T13:56:06;6.80;;;1.10;;
61085;SDS011;46967;48.876;2.136;2023-04-06T13:58:32;5.18;;;0.90;;
61085;SDS011;46967;48.876;2.136;2023-04-06T14:01:04;3.80;;;0.90;;
61085;SDS011;46967;48.876;2.136;2023-04-06T14:03:34;4.03;;;0.93;;
61085;SDS011;46967;48.876;2.136;2023-04-06T14:06:00;8.20;;;1.20;;
61085;SDS011;46967;48.876;2.136;2023-04-06T14:08:26;3.80;;;0.90;;
61085;SDS011;46967;48.876;2.136;2023-04-06T14:10:51;6.20;;;1.02;;
61085;SDS011;46967;48.876;2.136;2023-04-06T14:13:17;5.80;;;1.27;;
61085;SDS011;46967;48.876;2.136;2023-04-06T14:15:43;5.78;;;1.25;;
61085;SDS011;46967;48.876;2.136;2023-04-06T14:18:09;4.97;;;1.45;;
61085;SDS011;46967;48.876;2.136;2023-04-06T14:20:34;7.25;;;1.60;;
61085;SDS011;46967;48.876;2.136;2023-04-06T14:23:03;5.82;;;1.15;;
61085;SDS011;46967;48.876;2.136;2023-04-06T14:25:28;5.20;;;1.15;;
61085;SDS011;46967;48.876;2.136;2023-04-06T14:27:56;6.90;;;0.73;;
61085;SDS011;46967;48.876;2.136;2023-04-06T14:30:21;5.18;;;0.95;;
61085;SDS011;46967;48.876;2.136;2023-04-06T14:32:47;5.65;;;0.90;;
61085;SDS011;46967;48.876;2.136;2023-04-06T14:35:13;5.93;;;1.27;;
61085;SDS011;46967;48.876;2.136;2023-04-06T14:37:38;4.78;;;1.00;;
61085;SDS011;46967;48.876;2.136;2023-04-06T14:40:03;6.00;;;1.10;;
61085;SDS011;46967;48.876;2.136;2023-04-06T14:42:29;4.60;;;1.35;;
61085;SDS011;46967;48.876;2.136;2023-04-06T14:44:55;6.60;;;1.30;;
61085;SDS011;46967;48.876;2.136;2023-04-06T14:47:20;8.75;;;1.23;;
61085;SDS011;46967;48.876;2.136;2023-04-06T14:49:49;5.82;;;1.30;;
61085;SDS011;46967;48.876;2.136;2023-04-06T14:52:16;6.35;;;1.25;;
61085;SDS011;46967;48.876;2.136;2023-04-06T14:54:41;5.60;;;1.08;;
61085;SDS011;46967;48.876;2.136;2023-04-06T14:57:07;7.97;;;1.05;;